Latest Coastal Weather Observations for Cape Bruny AWS

IDT60701

Issued at 11:35 pm EST Wednesday 17 September 2014 (issued every 10 minutes, with the page automatically refreshed every 10 minutes)

About coastal observations | Map of coastal stations | Coastal observations for TAS | Marine services | Other Formats
Station Details ID: 094198 Name: CAPE BRUNY (CAPE BRUNY) Lat: -43.49 Lon: 147.14 Height: 59.7 m
Data from the previous 72 hours. | See also: Recent months at Cape Bruny AWS
Date/Time
EST
Temp

°C
Wind Pressure Rain
since 9am
mm
Weather Cloud Vis
km
Sea
Height
m
Swell
Dir
 
Speed
knots
Gust
knots
hPa Trend Height
m
Period
s
Dir
17/11:35pm 8.3 SW 24 34 1009.2 - 4.0 - - - - - - -
17/11:30pm 8.5 SW 26 35 1009.0 - 4.0 - - - - - - -
17/11:00pm 8.3 SW 28 39 1008.5 - 3.8 - - - - - - -
17/10:30pm 8.0 SW 21 32 1008.1 - 3.2 - - - - - - -
17/10:02pm 7.8 SW 21 31 1007.7 - 3.0 - - - - - - -
17/10:00pm 7.8 SW 20 28 1007.6 - 3.0 - - - - - - -
17/09:49pm 7.9 SW 20 30 1007.5 - 2.6 - - - - - - -
17/09:48pm 7.8 SW 17 24 1007.5 - 2.6 - - - - - - -
17/09:30pm 7.4 W 23 28 1007.1 - 2.6 - - - - - - -
17/09:00pm 7.0 W 26 35 1006.7 - 2.4 - - - - - - -
17/08:35pm 6.9 W 29 39 1006.5 - 2.4 - - - - - - -
17/08:30pm 7.0 W 30 39 1006.5 - 2.4 - - - - - - -
17/08:02pm 7.9 W 31 41 1006.3 - 2.4 - - - - - - -
17/08:00pm 7.7 W 32 41 1006.2 - 2.4 - - - - - - -
17/07:30pm 8.5 WSW 30 41 1005.8 - 2.4 - - - - - - -
17/07:04pm 8.7 W 29 39 1005.3 - 2.4 - - - - - - -
17/07:00pm 8.8 WSW 30 39 1005.3 - 2.4 - - - - - - -
17/06:30pm 8.8 WSW 28 36 1005.2 - 2.4 - - - - - - -
17/06:03pm 8.8 W 29 39 1005.0 - 2.4 - - - - - - -
17/06:00pm 8.8 W 28 37 1005.0 - 2.4 - - - - - - -
17/05:30pm 9.0 WSW 31 41 1004.5 - 2.4 - - - - - - -
17/05:29pm 8.9 WSW 31 41 1004.5 - 2.4 - - - - - - -
17/05:00pm 9.1 WSW 31 39 1004.2 - 2.4 - - - - - - -
17/04:35pm 9.1 WSW 29 39 1003.9 - 2.4 - - - - - - -
17/04:30pm 9.2 WSW 28 37 1003.9 - 2.4 - - - - - - -
17/04:00pm 9.6 WSW 29 37 1003.7 - 2.4 - - - - - - -
17/03:30pm 9.0 WSW 28 35 1003.3 - 2.4 - - - - - - -
17/03:00pm 8.8 WSW 30 38 1002.9 - 2.4 - - - - - - -
17/02:30pm 8.3 WSW 28 38 1002.8 - 2.4 - - - - - - -
17/02:00pm 6.8 WSW 27 42 1002.9 - 2.4 - - - - - - -
17/01:53pm 8.3 WSW 28 42 1002.7 - 2.0 - - - - - - -
17/01:30pm 8.3 W 22 32 1002.5 - 2.0 - - - - - - -
17/01:00pm 7.7 W 19 23 1002.7 - 2.0 - - - - - - -
17/12:30pm 7.4 W 20 26 1002.9 - 2.0 - - - - - - -
17/12:00pm 6.8 W 19 24 1003.4 - 2.0 Recent precip. - - - - - -
17/11:30am 6.6 W 22 28 1003.4 - 1.8 - - - - - - -
17/11:26am 6.4 W 23 33 1003.4 - 1.8 - - - - - - -
17/11:00am 6.8 WSW 23 30 1003.3 - 1.2 - - - - - - -
17/10:30am 7.8 WSW 16 22 1003.3 - 0.4 - - - - - - -
17/10:00am 7.8 WSW 11 14 1003.2 - 0.0 - - - - - - -
17/09:30am 8.0 WSW 17 21 1003.3 - 0.0 - - - - - - -
17/09:00am 9.1 W 13 15 1003.6 - - - - - - - - -
17/08:30am 8.9 WNW 10 13 1003.7 - - - - - - - - -
17/08:00am 8.8 WNW 9 11 1003.7 - - - - - - - - -
17/07:30am 8.5 WSW 4 7 1003.7 - - - - - - - - -
17/07:00am 8.6 W 8 11 1004.0 - - - - - - - - -
17/06:30am 8.5 NW 10 13 1004.0 - - - - - - - - -
17/06:00am 8.4 NNW 9 12 1004.2 - - Recent precip. - - - - - -
17/05:30am 8.8 NNW 9 12 1004.2 - - - - - - - - -
17/05:00am 9.0 N 8 10 1004.5 - - - - - - - - -
17/04:30am 9.0 NNW 9 11 1004.6 - - - - - - - - -
17/04:00am 8.2 N 9 13 1004.8 - - - - - - - - -
17/03:30am 8.3 N 7 9 1005.0 - - - - - - - - -
17/03:00am 8.1 N 8 9 1005.5 - 0.0 - - - - - - -
17/02:30am 8.3 N 9 11 1005.7 - - - - - - - - -
17/02:00am 8.1 N 9 10 1006.1 - - - - - - - - -
17/01:30am 8.1 N 7 11 1006.5 - - - - - - - - -
17/01:00am 8.1 N 8 9 1006.8 - - - - - - - - -
17/12:30am 8.1 N 7 9 1007.0 - - - - - - - - -
17/12:00am 8.5 N 8 9 1007.3 - - - - - - - - -
 
Date/Time
EST
Temp

°C
Wind Pressure Rain
since 9am
mm
Weather Cloud Vis
km
Sea
Height
m
Swell
Dir
 
Speed
knots
Gust
knots
hPa Trend Height
m
Period
s
Dir
16/11:30pm 8.1 N 7 9 1007.3 - - - - - - - - -
16/11:00pm 8.3 N 7 9 1007.6 - - - - - - - - -
16/10:30pm 7.9 NNW 5 8 1007.8 - - - - - - - - -
16/10:00pm 8.7 CALM 0 0 1008.0 - - - - - - - - -
16/09:30pm 8.7 WNW 4 6 1008.2 - - - - - - - - -
16/09:00pm 9.3 WNW 5 6 1008.5 - 0.0 - - - - - - -
16/08:30pm 9.8 W 8 10 1008.6 - - - - - - - - -
16/08:00pm 9.1 WSW 6 7 1008.7 - - - - - - - - -
16/07:30pm 9.2 WSW 5 6 1008.7 - - - - - - - - -
16/07:00pm 9.4 W 5 8 1008.7 - - - - - - - - -
16/06:30pm 9.5 WNW 3 4 1008.6 - - - - - - - - -
16/06:00pm 10.2 W 4 5 1008.6 - - - - - - - - -
16/05:30pm 12.1 W 5 6 1008.7 - - - - - - - - -
16/05:00pm 11.7 W 1 4 1008.6 - - - - - - - - -
16/04:30pm 12.0 SSE 1 3 1008.5 - - - - - - - - -
16/04:00pm 12.4 SSE 4 5 1008.4 - - - - - - - - -
16/03:30pm 12.6 S 5 7 1008.4 - - - - - - - - -
16/03:00pm 13.1 ESE 5 6 1008.4 - - - - - - - - -
16/02:30pm 13.4 ESE 6 8 1008.7 - 0.0 - - - - - - -
16/02:00pm 13.4 ESE 5 8 1008.8 - 0.0 - - - - - - -
16/01:30pm 13.3 ESE 8 10 1009.1 - 0.0 - - - - - - -
16/01:00pm 13.8 ESE 10 12 1009.4 - 0.0 - - - - - - -
16/12:30pm 13.3 ESE 11 13 1010.0 - 0.0 - - - - - - -
16/12:00pm 13.2 ESE 10 11 1010.7 - 0.0 - - - - - - -
16/11:30am 14.0 NE 6 8 1011.1 - 0.0 - - - - - - -
16/11:00am 13.3 NE 6 9 1011.5 - 0.0 - - - - - - -
16/10:30am 12.7 N 7 10 1011.9 - 0.0 - - - - - - -
16/10:00am 10.7 N 11 14 1012.2 - 0.0 - - - - - - -
16/09:30am 9.8 N 12 16 1012.4 - 0.0 - - - - - - -
16/09:00am 9.0 N 13 17 1012.6 - 0.0 - - - - - - -
16/08:30am 7.9 N 14 17 1012.7 - 0.0 - - - - - - -
16/08:00am 7.0 N 13 18 1012.8 - 0.0 - - - - - - -
16/07:30am 6.5 N 12 16 1012.7 - 0.0 - - - - - - -
16/07:00am 6.0 N 12 16 1012.6 - 0.0 - - - - - - -
16/06:30am 5.9 N 13 16 1012.6 - 0.0 - - - - - - -
16/06:00am 6.0 N 13 17 1012.6 - 0.0 - - - - - - -
16/05:30am 6.1 N 13 16 1012.5 - 0.0 - - - - - - -
16/05:00am 6.3 N 14 17 1012.5 - 0.0 - - - - - - -
16/04:30am 6.4 N 13 19 1012.5 - 0.0 - - - - - - -
16/04:00am 6.4 N 12 16 1012.4 - 0.0 - - - - - - -
16/03:30am 6.4 N 11 14 1012.6 - 0.0 - - - - - - -
16/03:00am 6.3 N 9 14 1012.8 - 0.0 - - - - - - -
16/02:30am 6.5 N 9 12 1013.1 - 0.0 - - - - - - -
16/02:00am 6.4 N 7 11 1013.5 - 0.0 - - - - - - -
16/01:30am 6.2 N 6 8 1013.8 - 0.0 - - - - - - -
16/01:00am 5.6 NNE 5 7 1014.3 - 0.0 - - - - - - -
16/12:30am 5.7 N 5 6 1014.7 - 0.0 - - - - - - -
16/12:00am 5.8 N 5 7 1014.9 - 0.0 - - - - - - -
 
Date/Time
EST
Temp

°C
Wind Pressure Rain
since 9am
mm
Weather Cloud Vis
km
Sea
Height
m
Swell
Dir
 
Speed
knots
Gust
knots
hPa Trend Height
m
Period
s
Dir
15/11:30pm 5.4 N 7 7 1015.2 - 0.0 - - - - - - -
15/11:00pm 5.3 N 5 6 1015.6 - 0.0 - - - - - - -
15/10:30pm 5.4 N 6 7 1015.8 - 0.0 - - - - - - -
15/10:00pm 5.9 NNE 6 7 1015.8 - 0.0 - - - - - - -
15/09:30pm 6.3 NNE 5 6 1016.2 - 0.0 - - - - - - -
15/09:00pm 7.3 NE 6 7 1016.1 - 0.0 - - - - - - -
15/08:30pm 7.4 NE 6 8 1016.4 - 0.0 - - - - - - -
15/08:00pm 6.7 NNE 6 8 1016.5 - 0.0 - - - - - - -
15/07:30pm 7.4 E 3 4 1016.5 - 0.0 - - - - - - -
15/07:00pm 7.7 E 4 6 1016.4 - 0.0 - - - - - - -
15/06:30pm 8.0 SSE 4 8 1016.4 - 0.0 - - - - - - -
15/06:00pm 8.3 SE 5 8 1016.3 - 0.0 - - - - - - -
15/05:30pm 8.9 S 6 7 1016.1 - 0.0 - - - - - - -
15/05:00pm 9.8 S 5 8 1016.3 - 0.0 - - - - - - -
15/04:30pm 10.3 S 7 9 1016.2 - 0.0 - - - - - - -
15/04:00pm 10.5 S 8 11 1016.3 - 0.0 - - - - - - -
15/03:30pm 10.6 S 9 14 1016.4 - 0.0 - - - - - - -
15/03:00pm 10.8 S 8 12 1016.5 - 0.0 - - - - - - -
15/02:30pm 11.2 S 8 11 1016.9 - 0.0 - - - - - - -
15/02:00pm 11.4 S 8 11 1017.1 - 0.0 - - - - - - -
15/01:30pm 10.9 SW 11 15 1017.3 - 0.0 - - - - - - -
15/01:00pm 11.1 SW 11 14 1017.6 - 0.0 - - - - - - -
15/12:30pm 11.0 W 11 14 1017.9 - 0.0 - - - - - - -
15/12:00pm 11.1 WSW 11 14 1018.0 - 0.0 - - - - - - -
15/11:30am 10.9 WSW 10 14 1018.4 - 0.0 - - - - - - -
15/11:00am 10.3 SW 8 12 1018.4 - 0.0 - - - - - - -
15/10:30am 9.9 SW 8 11 1018.5 - 0.0 - - - - - - -
15/10:00am 9.9 W 9 12 1018.5 - 0.0 - - - - - - -
15/09:30am 10.0 SW 9 14 1018.5 - 0.0 - - - - - - -
15/09:00am 9.4 WSW 8 12 1018.4 - 0.0 - - - - - - -
15/08:30am 9.5 WSW 9 14 1018.3 - 0.0 - - - - - - -
15/08:00am 9.1 SW 12 17 1018.3 - 0.0 - - - - - - -
15/07:30am 9.1 SW 8 13 1018.1 - 0.0 - - - - - - -
15/07:00am 8.9 SSW 8 16 1018.1 - 0.0 - - - - - - -
15/06:30am 9.0 SW 12 16 1018.0 - 0.0 - - - - - - -
15/06:00am 8.9 WSW 13 17 1017.8 - 0.0 - - - - - - -
15/05:30am 8.8 SW 11 17 1017.8 - 0.0 - - - - - - -
15/05:00am 9.0 SW 15 21 1017.8 - 0.0 - - - - - - -
15/04:30am 9.0 SW 15 23 1017.7 - 0.0 - - - - - - -
15/04:00am 9.1 WSW 17 22 1017.6 - 0.0 - - - - - - -
15/03:30am 9.0 W 15 19 1017.6 - 0.0 - - - - - - -
15/03:00am 8.9 W 17 22 1017.7 - 0.0 - - - - - - -
15/02:30am 9.0 W 17 23 1017.8 - 0.0 - - - - - - -
15/02:00am 9.1 W 20 26 1018.0 - 0.0 - - - - - - -
15/01:30am 9.3 WSW 18 23 1018.1 - 0.0 - - - - - - -
15/01:00am 9.4 WSW 19 25 1018.4 - 0.0 - - - - - - -
15/12:30am 9.3 W 19 25 1018.2 - 0.0 - - - - - - -
15/12:00am 9.3 WSW 17 23 1018.3 - 0.0 - - - - - - -

Other Formats:

Comma delimited format used in spreadsheet applications
http://www.bom.gov.au/fwo/IDT60701/IDT60701.95967.axf

JavaScript Object Notation format (JSON) in row-major order
http://www.bom.gov.au/fwo/IDT60701/IDT60701.95967.json